Milledgeville, Georgia
Current Conditions -  °F | °C
As of 3:15 PM on Monday 26 Jan 2015 (Local Time) from KMLJ Reporting Station
Overcast Overcast  
Wind Chill: 50°   Ceiling: 3500
Heat Index: 50°   Visibility: 10mi
Dew Point: 37°   Wind: 10mph
Humidity: 62%   Direction: 300°WNW
Pressure: 29.8"   Gusts: 24mph
Location:  33.08°N, 83.23°W
Report Text: KMLJ 262015Z AUTO 30009G21KT 280V340 10SM BKN035 OVC041 10/03 A2980 RMK AO2
Loading
Personal Weather Stations






























Interactive Weather Map New forecast layout! Learn more

10-Day Weather Forecast

Advertisements
Track Severe Weather on mobile